首页
METAR-TAF:

METAR-TAF

机场 :

阿雅克肖, 法国

纬度: 41-55N, 经度: 008-48E, 海拔: 6米

当前天气观测

该预报发布于10分钟前的08:30 UTC
风速5节,风向东北
温度 9°C
湿度 71%
气压 1013 hPa
能见度10公里或以上
1500米以下无云,无积雨云

METAR: LFKJ 100830Z AUTO 04005KT CAVOK 09/04 Q1013 NOSIG

时间: 09:40 (08:40 UTC)

预报

该预报发布于6小时和40分钟前的02:00 UTC
预报有效从10日的 03点(UTC)到 11日的 03点(UTC)
风速6节,风向北转东北
能见度10公里或以上
1500米以下无云,无积雨云
短暂存在
从 10日的 11点(UTC)到 10日的 15点(UTC)
风速10节,风向北转东北,有时为20节阵风

TAF: LFKJ 100200Z 1003/1103 03006KT CAVOK TEMPO 1011/1015 03010G20KT

超过4000个机场的气象观测和天气预报(METAR&TAF报告)。

可查询的气象台以黄色和红色小点在地图上表示。

将鼠标移到小点上方,可查看气象台名称。

然后点击查看天气观测和预报。

如需切换地图:点击带黑十字的绿色按钮放大地图;点击带横线的绿色按钮缩小地图;或者点击绿色箭头查看邻近地区的地图。


METAR-TAF: